sensor_id;sensor_type;location;lat;lon;timestamp;pressure;altitude;pressure_sealevel;temperature;humidity
62025;BME280;47978;49.118;12.146;2023-05-07T00:03:34;97466.84;;;10.60;97.18
62025;BME280;47978;49.118;12.146;2023-05-07T00:07:36;97471.72;;;10.35;98.59
62025;BME280;47978;49.118;12.146;2023-05-07T00:11:37;97476.47;;;10.49;97.77
62025;BME280;47978;49.118;12.146;2023-05-07T00:15:39;97473.28;;;10.28;97.71
62025;BME280;47978;49.118;12.146;2023-05-07T00:19:42;97473.59;;;10.40;96.55
62025;BME280;47978;49.118;12.146;2023-05-07T00:23:43;97475.66;;;10.16;97.66
62025;BME280;47978;49.118;12.146;2023-05-07T00:27:45;97471.09;;;10.25;97.81
62025;BME280;47978;49.118;12.146;2023-05-07T00:31:49;97474.59;;;10.44;96.26
62025;BME280;47978;49.118;12.146;2023-05-07T00:35:52;97477.91;;;10.13;97.46
62025;BME280;47978;49.118;12.146;2023-05-07T00:39:53;97482.44;;;10.23;97.10
62025;BME280;47978;49.118;12.146;2023-05-07T00:43:55;97475.56;;;10.21;96.69
62025;BME280;47978;49.118;12.146;2023-05-07T00:47:58;97483.34;;;10.19;96.52
62025;BME280;47978;49.118;12.146;2023-05-07T00:52:02;97481.88;;;10.07;97.04
62025;BME280;47978;49.118;12.146;2023-05-07T00:56:03;97476.22;;;9.85;98.63
62025;BME280;47978;49.118;12.146;2023-05-07T01:00:07;97482.00;;;10.02;97.30
62025;BME280;47978;49.118;12.146;2023-05-07T01:04:09;97484.81;;;9.64;97.96
62025;BME280;47978;49.118;12.146;2023-05-07T01:08:12;97488.34;;;9.51;98.27
62025;BME280;47978;49.118;12.146;2023-05-07T01:12:15;97478.91;;;9.33;99.09
62025;BME280;47978;49.118;12.146;2023-05-07T01:16:17;97474.59;;;9.27;100.00
62025;BME280;47978;49.118;12.146;2023-05-07T01:20:19;97478.19;;;9.65;98.87
62025;BME280;47978;49.118;12.146;2023-05-07T01:24:22;97479.72;;;9.72;99.27
62025;BME280;47978;49.118;12.146;2023-05-07T01:28:23;97473.41;;;9.52;98.45
62025;BME280;47978;49.118;12.146;2023-05-07T01:32:29;97478.56;;;9.40;99.66
62025;BME280;47978;49.118;12.146;2023-05-07T01:36:34;97474.00;;;9.68;97.89
62025;BME280;47978;49.118;12.146;2023-05-07T01:40:37;97471.53;;;9.66;97.91
62025;BME280;47978;49.118;12.146;2023-05-07T01:44:39;97472.00;;;9.55;98.88
62025;BME280;47978;49.118;12.146;2023-05-07T01:48:41;97471.53;;;9.66;99.22
62025;BME280;47978;49.118;12.146;2023-05-07T01:52:42;97476.84;;;9.63;98.66
62025;BME280;47978;49.118;12.146;2023-05-07T01:56:46;97477.00;;;9.34;100.00
62025;BME280;47978;49.118;12.146;2023-05-07T02:00:47;97492.19;;;9.69;98.79
62025;BME280;47978;49.118;12.146;2023-05-07T02:04:49;97485.03;;;9.68;98.24
62025;BME280;47978;49.118;12.146;2023-05-07T02:08:50;97483.91;;;9.50;99.02
62025;BME280;47978;49.118;12.146;2023-05-07T02:12:53;97477.97;;;9.43;99.50
62025;BME280;47978;49.118;12.146;2023-05-07T02:16:55;97492.50;;;9.30;99.53
62025;BME280;47978;49.118;12.146;2023-05-07T02:20:57;97494.72;;;9.28;100.00
62025;BME280;47978;49.118;12.146;2023-05-07T02:24:58;97485.78;;;9.36;99.73
62025;BME280;47978;49.118;12.146;2023-05-07T02:29:01;97490.19;;;9.18;99.99
62025;BME280;47978;49.118;12.146;2023-05-07T02:33:02;97488.25;;;9.18;99.74
62025;BME280;47978;49.118;12.146;2023-05-07T02:37:04;97486.69;;;9.12;99.84
62025;BME280;47978;49.118;12.146;2023-05-07T02:41:06;97470.06;;;9.17;99.16
62025;BME280;47978;49.118;12.146;2023-05-07T02:45:10;97472.38;;;9.29;99.17
62025;BME280;47978;49.118;12.146;2023-05-07T02:49:11;97466.25;;;9.13;99.56
62025;BME280;47978;49.118;12.146;2023-05-07T02:53:13;97460.66;;;9.37;99.02
62025;BME280;47978;49.118;12.146;2023-05-07T02:57:14;97457.00;;;9.42;98.89
62025;BME280;47978;49.118;12.146;2023-05-07T03:01:17;97451.41;;;9.47;99.04
62025;BME280;47978;49.118;12.146;2023-05-07T03:05:19;97457.00;;;9.42;99.34
62025;BME280;47978;49.118;12.146;2023-05-07T03:09:20;97460.75;;;9.51;98.85
62025;BME280;47978;49.118;12.146;2023-05-07T03:13:22;97462.97;;;9.11;99.24
62025;BME280;47978;49.118;12.146;2023-05-07T03:17:25;97464.34;;;8.71;100.00
62025;BME280;47978;49.118;12.146;2023-05-07T03:21:27;97465.66;;;8.73;100.00
62025;BME280;47978;49.118;12.146;2023-05-07T03:25:28;97465.75;;;8.68;100.00
62025;BME280;47978;49.118;12.146;2023-05-07T03:29:30;97460.53;;;8.67;100.00
62025;BME280;47978;49.118;12.146;2023-05-07T03:33:34;97467.00;;;8.57;100.00
62025;BME280;47978;49.118;12.146;2023-05-07T03:37:35;97462.13;;;8.49;100.00
62025;BME280;47978;49.118;12.146;2023-05-07T03:41:37;97460.63;;;8.56;100.00
62025;BME280;47978;49.118;12.146;2023-05-07T03:45:38;97466.72;;;8.53;100.00
62025;BME280;47978;49.118;12.146;2023-05-07T03:49:41;97476.06;;;8.58;100.00
62025;BME280;47978;49.118;12.146;2023-05-07T03:53:43;97483.69;;;8.66;100.00
62025;BME280;47978;49.118;12.146;2023-05-07T03:57:44;97480.94;;;8.66;100.00
62025;BME280;47978;49.118;12.146;2023-05-07T04:01:46;97490.94;;;8.56;100.00
62025;BME280;47978;49.118;12.146;2023-05-07T04:05:49;97484.69;;;8.75;100.00
62025;BME280;47978;49.118;12.146;2023-05-07T04:09:50;97497.75;;;8.88;100.00
62025;BME280;47978;49.118;12.146;2023-05-07T04:13:52;97493.34;;;8.87;100.00
62025;BME280;47978;49.118;12.146;2023-05-07T04:17:53;97498.81;;;8.92;100.00
62025;BME280;47978;49.118;12.146;2023-05-07T04:21:56;97499.78;;;9.01;100.00
62025;BME280;47978;49.118;12.146;2023-05-07T04:25:58;97496.47;;;9.23;100.00
62025;BME280;47978;49.118;12.146;2023-05-07T04:29:59;97502.88;;;9.38;100.00
62025;BME280;47978;49.118;12.146;2023-05-07T04:34:01;97498.09;;;9.43;100.00
62025;BME280;47978;49.118;12.146;2023-05-07T04:38:04;97501.75;;;9.39;100.00
62025;BME280;47978;49.118;12.146;2023-05-07T04:42:05;97511.28;;;9.28;100.00
62025;BME280;47978;49.118;12.146;2023-05-07T04:46:07;97507.66;;;9.32;100.00
62025;BME280;47978;49.118;12.146;2023-05-07T04:50:09;97507.34;;;9.53;99.95
62025;BME280;47978;49.118;12.146;2023-05-07T04:54:13;97514.44;;;9.40;100.00
62025;BME280;47978;49.118;12.146;2023-05-07T04:58:14;97513.00;;;9.61;100.00
62025;BME280;47978;49.118;12.146;2023-05-07T05:02:16;97519.19;;;9.72;100.00
62025;BME280;47978;49.118;12.146;2023-05-07T05:06:21;97524.34;;;9.79;99.63
62025;BME280;47978;49.118;12.146;2023-05-07T05:10:24;97521.94;;;10.24;97.92
62025;BME280;47978;49.118;12.146;2023-05-07T05:14:25;97524.63;;;10.62;96.37
62025;BME280;47978;49.118;12.146;2023-05-07T05:18:27;97531.81;;;10.90;94.29
62025;BME280;47978;49.118;12.146;2023-05-07T05:22:28;97520.97;;;11.44;92.20
62025;BME280;47978;49.118;12.146;2023-05-07T05:26:31;97529.19;;;12.08;89.73
62025;BME280;47978;49.118;12.146;2023-05-07T05:30:33;97535.50;;;12.22;88.11
62025;BME280;47978;49.118;12.146;2023-05-07T05:34:34;97528.09;;;14.21;80.00
62025;BME280;47978;49.118;12.146;2023-05-07T05:38:36;97528.03;;;15.91;73.43
62025;BME280;47978;49.118;12.146;2023-05-07T05:42:39;97530.22;;;18.36;63.74
62025;BME280;47978;49.118;12.146;2023-05-07T05:46:40;97526.69;;;20.33;58.52
62025;BME280;47978;49.118;12.146;2023-05-07T05:50:42;97529.09;;;21.39;52.98
62025;BME280;47978;49.118;12.146;2023-05-07T05:54:44;97523.75;;;21.34;54.08
62025;BME280;47978;49.118;12.146;2023-05-07T05:58:46;97523.25;;;21.51;51.66
62025;BME280;47978;49.118;12.146;2023-05-07T06:02:48;97523.66;;;21.04;51.03
62025;BME280;47978;49.118;12.146;2023-05-07T06:06:50;97536.53;;;19.05;57.29
62025;BME280;47978;49.118;12.146;2023-05-07T06:10:52;97523.28;;;20.24;53.87
62025;BME280;47978;49.118;12.146;2023-05-07T06:14:55;97535.75;;;18.20;59.14
62025;BME280;47978;49.118;12.146;2023-05-07T06:18:56;97540.56;;;18.76;57.21
62025;BME280;47978;49.118;12.146;2023-05-07T06:22:57;97543.50;;;18.68;58.53
62025;BME280;47978;49.118;12.146;2023-05-07T06:26:59;97542.91;;;21.02;55.10
62025;BME280;47978;49.118;12.146;2023-05-07T06:31:12;97551.16;;;21.37;48.68
62025;BME280;47978;49.118;12.146;2023-05-07T06:35:14;97555.16;;;21.86;48.71
62025;BME280;47978;49.118;12.146;2023-05-07T06:39:15;97566.69;;;20.65;51.94
62025;BME280;47978;49.118;12.146;2023-05-07T06:43:17;97577.09;;;21.04;51.66
62025;BME280;47978;49.118;12.146;2023-05-07T06:47:20;97583.91;;;19.74;54.92
62025;BME280;47978;49.118;12.146;2023-05-07T06:51:21;97581.16;;;19.93;54.30
62025;BME280;47978;49.118;12.146;2023-05-07T06:55:23;97570.59;;;21.46;50.10
62025;BME280;47978;49.118;12.146;2023-05-07T06:59:24;97572.72;;;21.29;50.79
62025;BME280;47978;49.118;12.146;2023-05-07T07:03:27;97581.53;;;20.27;53.83
62025;BME280;47978;49.118;12.146;2023-05-07T07:07:28;97575.59;;;19.62;55.64
62025;BME280;47978;49.118;12.146;2023-05-07T07:11:30;97573.88;;;19.73;55.15
62025;BME280;47978;49.118;12.146;2023-05-07T07:15:31;97565.53;;;18.97;57.31
62025;BME280;47978;49.118;12.146;2023-05-07T07:19:35;97581.59;;;18.56;59.90
62025;BME280;47978;49.118;12.146;2023-05-07T07:23:36;97585.00;;;18.09;60.55
62025;BME280;47978;49.118;12.146;2023-05-07T07:27:38;97577.81;;;17.35;62.61
62025;BME280;47978;49.118;12.146;2023-05-07T07:31:39;97582.75;;;16.92;64.00
62025;BME280;47978;49.118;12.146;2023-05-07T07:35:42;97588.19;;;16.55;65.49
62025;BME280;47978;49.118;12.146;2023-05-07T07:39:44;97589.66;;;16.40;66.56
62025;BME280;47978;49.118;12.146;2023-05-07T07:43:45;97580.06;;;16.29;66.30
62025;BME280;47978;49.118;12.146;2023-05-07T07:47:48;97578.56;;;16.32;67.18
62025;BME280;47978;49.118;12.146;2023-05-07T07:51:51;97576.84;;;16.73;66.25
62025;BME280;47978;49.118;12.146;2023-05-07T07:55:53;97581.16;;;16.70;66.68
62025;BME280;47978;49.118;12.146;2023-05-07T07:59:59;97571.69;;;16.96;65.64
62025;BME280;47978;49.118;12.146;2023-05-07T08:04:01;97579.91;;;17.38;64.79
62025;BME280;47978;49.118;12.146;2023-05-07T08:08:04;97575.72;;;17.56;64.52
62025;BME280;47978;49.118;12.146;2023-05-07T08:12:07;97577.34;;;16.75;66.79
62025;BME280;47978;49.118;12.146;2023-05-07T08:16:09;97565.09;;;17.00;65.56
62025;BME280;47978;49.118;12.146;2023-05-07T08:20:10;97582.78;;;17.04;65.58
62025;BME280;47978;49.118;12.146;2023-05-07T08:24:13;97585.72;;;17.20;65.71
62025;BME280;47978;49.118;12.146;2023-05-07T08:28:15;97592.28;;;17.37;64.73
62025;BME280;47978;49.118;12.146;2023-05-07T08:32:16;97586.75;;;18.14;62.19
62025;BME280;47978;49.118;12.146;2023-05-07T08:36:18;97591.22;;;17.53;63.67
62025;BME280;47978;49.118;12.146;2023-05-07T08:40:25;97587.38;;;17.58;64.67
62025;BME280;47978;49.118;12.146;2023-05-07T08:44:27;97592.50;;;17.81;64.13
62025;BME280;47978;49.118;12.146;2023-05-07T08:48:30;97595.75;;;17.95;63.08
62025;BME280;47978;49.118;12.146;2023-05-07T08:52:32;97595.72;;;18.19;63.16
62025;BME280;47978;49.118;12.146;2023-05-07T08:56:35;97596.59;;;17.71;63.96
62025;BME280;47978;49.118;12.146;2023-05-07T09:00:37;97595.53;;;17.51;65.37
62025;BME280;47978;49.118;12.146;2023-05-07T09:04:41;97605.31;;;17.94;62.96
62025;BME280;47978;49.118;12.146;2023-05-07T09:08:49;97606.88;;;18.32;62.04
62025;BME280;47978;49.118;12.146;2023-05-07T09:12:52;97612.41;;;18.56;62.94
62025;BME280;47978;49.118;12.146;2023-05-07T09:16:53;97616.97;;;18.49;62.15
62025;BME280;47978;49.118;12.146;2023-05-07T09:20:55;97603.44;;;19.07;60.62
62025;BME280;47978;49.118;12.146;2023-05-07T09:24:56;97595.66;;;19.32;59.82
62025;BME280;47978;49.118;12.146;2023-05-07T09:28:59;97590.97;;;19.04;60.38
62025;BME280;47978;49.118;12.146;2023-05-07T09:33:01;97594.94;;;19.19;60.45
62025;BME280;47978;49.118;12.146;2023-05-07T09:37:04;97592.59;;;20.20;57.53
62025;BME280;47978;49.118;12.146;2023-05-07T09:41:08;97590.38;;;20.64;57.24
62025;BME280;47978;49.118;12.146;2023-05-07T09:45:11;97585.44;;;19.08;59.47
62025;BME280;47978;49.118;12.146;2023-05-07T09:49:21;97589.13;;;18.68;61.48
62025;BME280;47978;49.118;12.146;2023-05-07T09:53:23;97593.09;;;18.67;62.69
62025;BME280;47978;49.118;12.146;2023-05-07T09:57:25;97578.50;;;19.33;60.83
62025;BME280;47978;49.118;12.146;2023-05-07T10:01:30;97581.75;;;19.67;60.20
62025;BME280;47978;49.118;12.146;2023-05-07T10:05:32;97579.41;;;19.22;60.40
62025;BME280;47978;49.118;12.146;2023-05-07T10:09:34;97582.44;;;20.70;57.31
62025;BME280;47978;49.118;12.146;2023-05-07T10:13:37;97587.03;;;20.78;55.70
62025;BME280;47978;49.118;12.146;2023-05-07T10:17:40;97578.13;;;20.37;57.19
62025;BME280;47978;49.118;12.146;2023-05-07T10:21:44;97575.44;;;21.26;53.96
62025;BME280;47978;49.118;12.146;2023-05-07T10:25:49;97581.50;;;21.05;55.61
62025;BME280;47978;49.118;12.146;2023-05-07T10:30:00;97580.75;;;20.65;55.39
62025;BME280;47978;49.118;12.146;2023-05-07T10:34:11;97576.03;;;21.35;55.51
62025;BME280;47978;49.118;12.146;2023-05-07T10:38:14;97576.97;;;21.43;54.30
62025;BME280;47978;49.118;12.146;2023-05-07T10:42:16;97572.72;;;21.29;54.99
62025;BME280;47978;49.118;12.146;2023-05-07T10:46:19;97568.69;;;21.07;54.86
62025;BME280;47978;49.118;12.146;2023-05-07T10:50:22;97570.72;;;21.07;55.44
62025;BME280;47978;49.118;12.146;2023-05-07T10:54:24;97559.91;;;21.09;54.45
62025;BME280;47978;49.118;12.146;2023-05-07T10:58:26;97567.34;;;20.78;55.00
62025;BME280;47978;49.118;12.146;2023-05-07T11:07:29;97558.84;;;20.36;56.31
62025;BME280;47978;49.118;12.146;2023-05-07T11:11:46;97560.66;;;20.63;55.45
62025;BME280;47978;49.118;12.146;2023-05-07T11:15:48;97560.94;;;20.58;55.86
62025;BME280;47978;49.118;12.146;2023-05-07T11:19:52;97562.81;;;19.80;55.50
62025;BME280;47978;49.118;12.146;2023-05-07T11:24:04;97564.97;;;20.22;55.10
62025;BME280;47978;49.118;12.146;2023-05-07T11:28:06;97554.81;;;20.53;55.68
62025;BME280;47978;49.118;12.146;2023-05-07T11:32:08;97548.66;;;21.09;54.87
62025;BME280;47978;49.118;12.146;2023-05-07T11:36:10;97551.97;;;20.33;52.86
62025;BME280;47978;49.118;12.146;2023-05-07T11:40:13;97557.00;;;20.24;55.16
62025;BME280;47978;49.118;12.146;2023-05-07T11:44:15;97552.31;;;20.32;52.08
62025;BME280;47978;49.118;12.146;2023-05-07T11:48:17;97563.09;;;19.75;54.46
62025;BME280;47978;49.118;12.146;2023-05-07T11:52:20;97558.28;;;20.11;53.84
62025;BME280;47978;49.118;12.146;2023-05-07T11:56:23;97547.94;;;20.93;53.18
62025;BME280;47978;49.118;12.146;2023-05-07T12:00:25;97557.44;;;20.84;52.60
62025;BME280;47978;49.118;12.146;2023-05-07T12:04:28;97557.72;;;19.86;53.82
62025;BME280;47978;49.118;12.146;2023-05-07T12:08:31;97557.38;;;19.87;53.84
62025;BME280;47978;49.118;12.146;2023-05-07T12:12:39;97549.81;;;20.07;52.19
62025;BME280;47978;49.118;12.146;2023-05-07T12:16:40;97545.50;;;19.94;52.79
62025;BME280;47978;49.118;12.146;2023-05-07T12:20:42;97548.78;;;20.15;51.93
62025;BME280;47978;49.118;12.146;2023-05-07T12:24:45;97547.00;;;20.46;50.09
62025;BME280;47978;49.118;12.146;2023-05-07T12:28:48;97546.38;;;20.53;49.53
62025;BME280;47978;49.118;12.146;2023-05-07T12:32:51;97536.22;;;20.67;50.56
62025;BME280;47978;49.118;12.146;2023-05-07T12:36:54;97536.88;;;20.41;51.42
62025;BME280;47978;49.118;12.146;2023-05-07T12:40:56;97540.28;;;20.31;50.99
62025;BME280;47978;49.118;12.146;2023-05-07T12:44:59;97533.00;;;20.88;50.21
62025;BME280;47978;49.118;12.146;2023-05-07T12:49:00;97530.41;;;21.45;49.96
62025;BME280;47978;49.118;12.146;2023-05-07T12:53:03;97518.28;;;20.53;48.44
62025;BME280;47978;49.118;12.146;2023-05-07T12:57:06;97518.22;;;21.15;49.31
62025;BME280;47978;49.118;12.146;2023-05-07T13:01:09;97522.72;;;20.96;48.30
62025;BME280;47978;49.118;12.146;2023-05-07T13:05:11;97516.59;;;20.52;48.34
62025;BME280;47978;49.118;12.146;2023-05-07T13:09:13;97521.22;;;20.60;47.75
62025;BME280;47978;49.118;12.146;2023-05-07T13:13:15;97514.75;;;20.79;47.59
62025;BME280;47978;49.118;12.146;2023-05-07T13:17:18;97516.91;;;20.66;47.40
62025;BME280;47978;49.118;12.146;2023-05-07T13:21:20;97508.31;;;20.55;45.95
62025;BME280;47978;49.118;12.146;2023-05-07T13:25:21;97501.69;;;20.48;47.34
62025;BME280;47978;49.118;12.146;2023-05-07T13:29:23;97499.13;;;20.19;47.22
62025;BME280;47978;49.118;12.146;2023-05-07T13:33:26;97484.22;;;20.77;46.51
62025;BME280;47978;49.118;12.146;2023-05-07T13:37:27;97491.84;;;21.00;45.46
62025;BME280;47978;49.118;12.146;2023-05-07T13:41:29;97491.78;;;20.96;43.96
62025;BME280;47978;49.118;12.146;2023-05-07T13:45:30;97485.03;;;21.01;46.12
62025;BME280;47978;49.118;12.146;2023-05-07T13:49:33;97478.53;;;20.97;47.14
62025;BME280;47978;49.118;12.146;2023-05-07T13:53:35;97481.09;;;21.05;44.83
62025;BME280;47978;49.118;12.146;2023-05-07T13:57:36;97469.34;;;21.00;46.72
62025;BME280;47978;49.118;12.146;2023-05-07T14:01:38;97475.97;;;21.11;47.21
62025;BME280;47978;49.118;12.146;2023-05-07T14:05:41;97473.22;;;21.38;47.73
62025;BME280;47978;49.118;12.146;2023-05-07T14:09:42;97468.13;;;21.47;48.00
62025;BME280;47978;49.118;12.146;2023-05-07T14:13:44;97469.47;;;21.56;48.28
62025;BME280;47978;49.118;12.146;2023-05-07T14:17:45;97469.13;;;21.35;49.57
62025;BME280;47978;49.118;12.146;2023-05-07T14:21:48;97477.50;;;21.54;50.30
62025;BME280;47978;49.118;12.146;2023-05-07T14:25:50;97487.78;;;20.74;51.42
62025;BME280;47978;49.118;12.146;2023-05-07T14:29:51;97481.34;;;20.97;51.20
62025;BME280;47978;49.118;12.146;2023-05-07T14:33:53;97489.88;;;20.38;52.68
62025;BME280;47978;49.118;12.146;2023-05-07T14:37:56;97487.41;;;20.76;52.77
62025;BME280;47978;49.118;12.146;2023-05-07T14:41:57;97482.34;;;20.62;52.49
62025;BME280;47978;49.118;12.146;2023-05-07T14:45:58;97495.06;;;20.36;52.07
62025;BME280;47978;49.118;12.146;2023-05-07T14:50:00;97493.50;;;20.19;52.26
62025;BME280;47978;49.118;12.146;2023-05-07T14:54:04;97491.50;;;20.39;52.06
62025;BME280;47978;49.118;12.146;2023-05-07T14:58:05;97499.94;;;20.20;51.83
62025;BME280;47978;49.118;12.146;2023-05-07T15:02:07;97493.56;;;20.42;51.82
62025;BME280;47978;49.118;12.146;2023-05-07T15:06:09;97488.69;;;20.59;51.66
62025;BME280;47978;49.118;12.146;2023-05-07T15:10:13;97491.38;;;20.32;50.98
62025;BME280;47978;49.118;12.146;2023-05-07T15:14:14;97491.94;;;20.22;53.03
62025;BME280;47978;49.118;12.146;2023-05-07T15:18:16;97491.66;;;20.08;53.12
62025;BME280;47978;49.118;12.146;2023-05-07T15:22:17;97483.94;;;20.63;52.16
62025;BME280;47978;49.118;12.146;2023-05-07T15:26:20;97476.72;;;20.23;52.66
62025;BME280;47978;49.118;12.146;2023-05-07T15:30:22;97493.41;;;19.77;53.39
62025;BME280;47978;49.118;12.146;2023-05-07T15:34:23;97486.47;;;19.90;52.78
62025;BME280;47978;49.118;12.146;2023-05-07T15:38:25;97488.09;;;19.91;53.75
62025;BME280;47978;49.118;12.146;2023-05-07T15:42:28;97492.66;;;19.80;53.43
62025;BME280;47978;49.118;12.146;2023-05-07T15:46:29;97499.31;;;19.91;53.46
62025;BME280;47978;49.118;12.146;2023-05-07T15:50:31;97487.63;;;19.89;54.07
62025;BME280;47978;49.118;12.146;2023-05-07T15:54:32;97485.72;;;19.74;53.88
62025;BME280;47978;49.118;12.146;2023-05-07T15:58:35;97487.72;;;19.73;54.50
62025;BME280;47978;49.118;12.146;2023-05-07T16:02:37;97494.69;;;19.64;53.84
62025;BME280;47978;49.118;12.146;2023-05-07T16:06:39;97505.75;;;19.41;54.29
62025;BME280;47978;49.118;12.146;2023-05-07T16:10:40;97497.25;;;19.37;54.33
62025;BME280;47978;49.118;12.146;2023-05-07T16:14:43;97512.28;;;19.45;54.30
62025;BME280;47978;49.118;12.146;2023-05-07T16:18:45;97510.75;;;19.00;55.14
62025;BME280;47978;49.118;12.146;2023-05-07T16:22:46;97516.63;;;19.26;55.35
62025;BME280;47978;49.118;12.146;2023-05-07T16:26:48;97519.16;;;19.31;55.01
62025;BME280;47978;49.118;12.146;2023-05-07T16:30:51;97519.34;;;18.91;55.87
62025;BME280;47978;49.118;12.146;2023-05-07T16:34:52;97517.16;;;18.84;56.39
62025;BME280;47978;49.118;12.146;2023-05-07T16:38:54;97516.09;;;18.61;56.54
62025;BME280;47978;49.118;12.146;2023-05-07T16:42:56;97521.69;;;18.61;55.99
62025;BME280;47978;49.118;12.146;2023-05-07T16:46:59;97519.69;;;18.46;56.74
62025;BME280;47978;49.118;12.146;2023-05-07T16:51:00;97523.25;;;18.30;56.66
62025;BME280;47978;49.118;12.146;2023-05-07T16:55:02;97516.00;;;18.57;56.62
62025;BME280;47978;49.118;12.146;2023-05-07T16:59:03;97528.00;;;18.30;57.00
62025;BME280;47978;49.118;12.146;2023-05-07T17:03:06;97527.13;;;18.26;57.59
62025;BME280;47978;49.118;12.146;2023-05-07T17:07:08;97530.63;;;18.23;57.47
62025;BME280;47978;49.118;12.146;2023-05-07T17:11:10;97541.91;;;18.26;57.70
62025;BME280;47978;49.118;12.146;2023-05-07T17:15:12;97543.59;;;18.15;58.15
62025;BME280;47978;49.118;12.146;2023-05-07T17:19:15;97539.78;;;17.95;58.79
62025;BME280;47978;49.118;12.146;2023-05-07T17:23:16;97549.59;;;17.89;59.21
62025;BME280;47978;49.118;12.146;2023-05-07T17:27:18;97560.34;;;17.62;60.61
62025;BME280;47978;49.118;12.146;2023-05-07T17:31:20;97559.28;;;17.54;60.85
62025;BME280;47978;49.118;12.146;2023-05-07T17:35:23;97560.44;;;17.41;61.05
62025;BME280;47978;49.118;12.146;2023-05-07T17:39:24;97574.69;;;17.36;61.70
62025;BME280;47978;49.118;12.146;2023-05-07T17:43:26;97568.81;;;17.04;62.52
62025;BME280;47978;49.118;12.146;2023-05-07T17:47:28;97565.19;;;17.04;62.59
62025;BME280;47978;49.118;12.146;2023-05-07T17:51:31;97570.66;;;16.88;63.02
62025;BME280;47978;49.118;12.146;2023-05-07T17:55:52;97567.72;;;16.84;63.41
62025;BME280;47978;49.118;12.146;2023-05-07T17:59:54;97575.44;;;16.67;63.60
62025;BME280;47978;49.118;12.146;2023-05-07T18:03:56;97590.41;;;16.62;63.79
62025;BME280;47978;49.118;12.146;2023-05-07T18:07:59;97581.19;;;16.49;64.12
62025;BME280;47978;49.118;12.146;2023-05-07T18:12:00;97596.16;;;16.45;64.12
62025;BME280;47978;49.118;12.146;2023-05-07T18:16:02;97599.19;;;16.39;63.95
62025;BME280;47978;49.118;12.146;2023-05-07T18:20:05;97606.47;;;16.32;64.45
62025;BME280;47978;49.118;12.146;2023-05-07T18:24:08;97602.03;;;16.10;64.93
62025;BME280;47978;49.118;12.146;2023-05-07T18:28:09;97597.16;;;16.07;64.62
62025;BME280;47978;49.118;12.146;2023-05-07T18:32:11;97611.47;;;15.96;65.18
62025;BME280;47978;49.118;12.146;2023-05-07T18:36:13;97620.75;;;15.88;65.17
62025;BME280;47978;49.118;12.146;2023-05-07T18:40:16;97621.94;;;15.79;65.47
62025;BME280;47978;49.118;12.146;2023-05-07T18:44:17;97627.38;;;15.75;65.34
62025;BME280;47978;49.118;12.146;2023-05-07T18:48:19;97632.16;;;15.66;66.30
62025;BME280;47978;49.118;12.146;2023-05-07T18:52:20;97639.09;;;15.60;65.87
62025;BME280;47978;49.118;12.146;2023-05-07T18:56:23;97643.00;;;15.59;66.87
62025;BME280;47978;49.118;12.146;2023-05-07T19:00:25;97639.13;;;15.42;66.50
62025;BME280;47978;49.118;12.146;2023-05-07T19:04:26;97639.34;;;15.37;66.24
62025;BME280;47978;49.118;12.146;2023-05-07T19:08:28;97641.66;;;15.26;66.79
62025;BME280;47978;49.118;12.146;2023-05-07T19:12:31;97649.53;;;15.24;66.47
62025;BME280;47978;49.118;12.146;2023-05-07T19:16:32;97646.25;;;15.22;66.06
62025;BME280;47978;49.118;12.146;2023-05-07T19:20:34;97650.38;;;15.16;66.35
62025;BME280;47978;49.118;12.146;2023-05-07T19:24:35;97650.22;;;15.13;66.02
62025;BME280;47978;49.118;12.146;2023-05-07T19:28:39;97658.44;;;15.09;66.58
62025;BME280;47978;49.118;12.146;2023-05-07T19:32:48;97651.09;;;14.96;66.34
62025;BME280;47978;49.118;12.146;2023-05-07T19:36:50;97652.91;;;14.92;66.15
62025;BME280;47978;49.118;12.146;2023-05-07T19:40:52;97662.91;;;14.93;65.97
62025;BME280;47978;49.118;12.146;2023-05-07T19:44:55;97666.84;;;14.83;65.91
62025;BME280;47978;49.118;12.146;2023-05-07T19:48:56;97666.19;;;14.77;66.15
62025;BME280;47978;49.118;12.146;2023-05-07T19:52:58;97676.03;;;14.75;65.33
62025;BME280;47978;49.118;12.146;2023-05-07T19:56:59;97685.34;;;14.61;65.84
62025;BME280;47978;49.118;12.146;2023-05-07T20:01:03;97686.16;;;14.62;65.92
62025;BME280;47978;49.118;12.146;2023-05-07T20:05:05;97691.72;;;14.45;66.67
62025;BME280;47978;49.118;12.146;2023-05-07T20:09:07;97686.78;;;14.42;66.18
62025;BME280;47978;49.118;12.146;2023-05-07T20:13:09;97686.28;;;14.39;66.20
62025;BME280;47978;49.118;12.146;2023-05-07T20:17:12;97700.34;;;14.26;66.35
62025;BME280;47978;49.118;12.146;2023-05-07T20:21:14;97702.97;;;14.22;66.67
62025;BME280;47978;49.118;12.146;2023-05-07T20:25:15;97711.47;;;14.17;66.40
62025;BME280;47978;49.118;12.146;2023-05-07T20:29:17;97704.41;;;14.02;66.69
62025;BME280;47978;49.118;12.146;2023-05-07T20:33:20;97698.00;;;13.93;67.58
62025;BME280;47978;49.118;12.146;2023-05-07T20:37:21;97704.22;;;13.90;67.62
62025;BME280;47978;49.118;12.146;2023-05-07T20:41:23;97699.28;;;13.78;67.94
62025;BME280;47978;49.118;12.146;2023-05-07T20:45:24;97706.78;;;13.69;68.32
62025;BME280;47978;49.118;12.146;2023-05-07T20:49:27;97704.31;;;13.67;68.05
62025;BME280;47978;49.118;12.146;2023-05-07T20:53:30;97707.88;;;13.59;68.25
62025;BME280;47978;49.118;12.146;2023-05-07T20:57:32;97714.72;;;13.53;68.24
62025;BME280;47978;49.118;12.146;2023-05-07T21:01:33;97714.97;;;13.43;68.75
62025;BME280;47978;49.118;12.146;2023-05-07T21:05:36;97724.16;;;13.43;68.75
62025;BME280;47978;49.118;12.146;2023-05-07T21:09:38;97731.81;;;13.38;68.62
62025;BME280;47978;49.118;12.146;2023-05-07T21:13:39;97736.22;;;13.39;68.59